Time;durP1;ratioP1;P1;durP2;ratioP2;P2;SDS_P1;SDS_P2;PMS_P1;PMS_P2;Temp;Humidity;BMP_temperature;BMP_pressure;BME280_temperature;BME280_humidity;BME280_pressure;Samples;Min_cycle;Max_cycle;Signal;HPM_P1;HPM_P2
2023/10/31 00:01:13;;;;;;;1.80;1.33;;;12.10;99.90;;;;;;5058928;28;20039;-61
2023/10/31 00:03:40;;;;;;;1.85;1.38;;;12.10;99.90;;;;;;5055256;28;20032;-58
2023/10/31 00:06:06;;;;;;;1.45;1.20;;;12.10;99.90;;;;;;5060695;28;20048;-59
2023/10/31 00:08:31;;;;;;;1.52;1.40;;;12.10;99.90;;;;;;5059945;28;20048;-59
2023/10/31 00:10:57;;;;;;;2.42;2.22;;;12.10;99.90;;;;;;5059014;28;20025;-60
2023/10/31 00:13:22;;;;;;;3.13;2.17;;;12.10;99.90;;;;;;5060251;28;20036;-60
2023/10/31 00:15:48;;;;;;;3.35;2.90;;;12.10;99.90;;;;;;5055621;28;20029;-59
2023/10/31 00:18:13;;;;;;;2.83;2.38;;;12.10;99.90;;;;;;5057885;28;20024;-56
2023/10/31 00:20:39;;;;;;;4.93;2.47;;;12.10;99.90;;;;;;5062377;28;20047;-53
2023/10/31 00:23:04;;;;;;;3.42;2.70;;;12.10;99.90;;;;;;5061395;28;20032;-57
2023/10/31 00:25:30;;;;;;;3.88;3.35;;;12.00;99.90;;;;;;5060941;28;20029;-56
2023/10/31 00:27:55;;;;;;;4.03;3.63;;;12.10;99.90;;;;;;5059650;28;20487;-56
2023/10/31 00:30:21;;;;;;;5.13;3.80;;;12.00;99.90;;;;;;5061806;28;20040;-57
2023/10/31 00:32:47;;;;;;;4.40;3.55;;;12.10;99.90;;;;;;5060071;28;20033;-58
2023/10/31 00:35:12;;;;;;;4.28;3.83;;;12.10;99.90;;;;;;5066691;28;20085;-56
2023/10/31 00:37:39;;;;;;;4.13;3.35;;;12.00;99.90;;;;;;5052138;28;20020;-58
2023/10/31 00:40:11;;;;;;;4.85;3.42;;;12.00;99.90;;;;;;5054933;28;20047;-56
2023/10/31 00:42:41;;;;;;;3.30;2.92;;;12.00;99.90;;;;;;5064151;28;20028;-56
2023/10/31 00:45:08;;;;;;;3.50;3.20;;;12.00;99.90;;;;;;5062869;28;20510;-60
2023/10/31 00:47:34;;;;;;;3.90;3.28;;;12.00;99.90;;;;;;5055186;28;20033;-58
2023/10/31 00:49:59;;;;;;;5.93;2.80;;;12.00;99.90;;;;;;5057020;28;20041;-54
2023/10/31 00:52:25;;;;;;;4.38;2.60;;;11.90;99.90;;;;;;5055727;28;20024;-57
2023/10/31 00:54:50;;;;;;;4.43;2.28;;;11.90;99.90;;;;;;5056820;28;20411;-58
2023/10/31 00:57:16;;;;;;;5.32;2.45;;;11.80;99.90;;;;;;5054959;28;20104;-58
2023/10/31 00:59:42;;;;;;;5.47;1.90;;;11.80;99.90;;;;;;5062265;28;20099;-55
2023/10/31 01:02:07;;;;;;;3.88;1.70;;;11.80;99.90;;;;;;5056813;28;20028;-60
2023/10/31 01:04:33;;;;;;;5.32;2.05;;;11.80;99.90;;;;;;5057623;28;20028;-57
2023/10/31 01:06:58;;;;;;;6.18;2.25;;;11.70;99.90;;;;;;5057007;28;20036;-57
2023/10/31 01:09:24;;;;;;;7.80;2.08;;;11.70;99.90;;;;;;5054812;28;20032;-60
2023/10/31 01:11:50;;;;;;;5.45;2.42;;;11.70;99.90;;;;;;5058851;28;20376;-58
2023/10/31 01:14:15;;;;;;;6.18;2.58;;;11.60;99.90;;;;;;5057283;28;20582;-52
2023/10/31 01:16:41;;;;;;;6.30;2.28;;;11.60;99.90;;;;;;5055147;28;20406;-57
2023/10/31 01:19:07;;;;;;;4.07;2.95;;;11.60;99.90;;;;;;5058657;28;20033;-61
2023/10/31 01:21:33;;;;;;;5.95;3.08;;;11.50;99.90;;;;;;5059050;28;20028;-59
2023/10/31 01:23:59;;;;;;;8.82;2.55;;;11.40;99.90;;;;;;5062169;28;20024;-58
2023/10/31 01:26:25;;;;;;;7.28;2.55;;;11.40;99.90;;;;;;5063576;28;20135;-58
2023/10/31 01:28:51;;;;;;;7.57;3.38;;;11.40;99.90;;;;;;5054791;28;20175;-52
2023/10/31 01:31:17;;;;;;;11.18;2.78;;;11.30;99.90;;;;;;5059432;28;20035;-54
2023/10/31 01:33:42;;;;;;;8.27;2.10;;;11.20;99.90;;;;;;5060323;28;20095;-58
2023/10/31 01:36:10;;;;;;;6.80;2.17;;;11.20;99.90;;;;;;5061573;28;20035;-59
2023/10/31 01:38:35;;;;;;;5.25;1.95;;;11.20;99.90;;;;;;5055150;28;20032;-59
2023/10/31 01:41:01;;;;;;;4.43;2.13;;;11.20;99.90;;;;;;5060064;28;20033;-60
2023/10/31 01:43:36;;;;;;;4.65;2.13;;;11.10;99.90;;;;;;5061902;28;20403;-60
2023/10/31 01:46:03;;;;;;;6.72;2.10;;;11.20;99.90;;;;;;5066436;28;20039;-60
2023/10/31 01:48:31;;;;;;;5.10;1.85;;;11.20;99.90;;;;;;5061108;28;20204;-60
2023/10/31 01:50:59;;;;;;;6.32;2.58;;;11.10;99.90;;;;;;5058475;28;20036;-59
2023/10/31 01:53:26;;;;;;;7.60;1.98;;;11.10;99.90;;;;;;5059950;28;20033;-59
2023/10/31 01:55:52;;;;;;;8.55;1.80;;;11.00;99.90;;;;;;5056342;28;20032;-61
2023/10/31 01:58:25;;;;;;;4.90;1.92;;;11.10;99.90;;;;;;5056736;28;20411;-60
2023/10/31 02:00:51;;;;;;;2.40;1.40;;;11.10;99.90;;;;;;5060826;28;20024;-59
2023/10/31 02:03:18;;;;;;;6.00;1.60;;;11.00;99.90;;;;;;5064369;28;20017;-58
2023/10/31 02:05:43;;;;;;;7.00;1.60;;;11.00;99.90;;;;;;5056528;28;20044;-59
2023/10/31 02:08:09;;;;;;;7.30;2.10;;;10.90;99.90;;;;;;5055809;28;20033;-61
2023/10/31 02:10:35;;;;;;;3.78;1.63;;;10.90;99.90;;;;;;5063078;28;20044;-56
2023/10/31 02:13:14;;;;;;;5.95;2.00;;;10.80;99.90;;;;;;5064757;28;20024;-57
2023/10/31 02:15:40;;;;;;;7.28;1.90;;;10.80;99.90;;;;;;5054844;28;20498;-58
2023/10/31 02:18:07;;;;;;;9.75;2.03;;;10.80;99.90;;;;;;5060672;28;20100;-60
2023/10/31 02:20:33;;;;;;;2.53;1.48;;;10.70;99.90;;;;;;5053084;28;20040;-55
2023/10/31 02:22:59;;;;;;;10.75;2.17;;;10.70;99.90;;;;;;5063847;28;20020;-56
2023/10/31 02:25:25;;;;;;;6.57;1.65;;;10.60;99.90;;;;;;5057213;28;20033;-59
2023/10/31 02:27:51;;;;;;;6.95;1.73;;;10.60;99.90;;;;;;5068765;28;20093;-59
2023/10/31 02:30:16;;;;;;;3.83;1.80;;;10.60;99.90;;;;;;5062275;28;20028;-59
2023/10/31 02:32:42;;;;;;;4.32;1.60;;;10.50;99.90;;;;;;5064170;28;20043;-57
2023/10/31 02:35:08;;;;;;;4.97;2.03;;;10.40;99.90;;;;;;5060249;28;20453;-54
2023/10/31 02:37:34;;;;;;;6.50;1.98;;;10.40;99.90;;;;;;5057700;28;20450;-59
2023/10/31 02:40:00;;;;;;;4.97;1.50;;;10.40;99.90;;;;;;5054976;28;20541;-58
2023/10/31 02:42:26;;;;;;;9.98;1.73;;;10.40;99.90;;;;;;5059246;28;20479;-57
2023/10/31 02:44:52;;;;;;;4.18;1.55;;;10.30;99.90;;;;;;5057015;28;20028;-58
2023/10/31 02:47:17;;;;;;;4.38;1.35;;;10.30;99.90;;;;;;5058393;28;20078;-58
2023/10/31 02:49:43;;;;;;;7.85;1.77;;;10.30;99.90;;;;;;5059601;28;20033;-58
2023/10/31 02:52:08;;;;;;;3.33;1.33;;;10.30;99.90;;;;;;5064812;28;20032;-58
2023/10/31 02:54:34;;;;;;;4.82;1.85;;;10.30;99.90;;;;;;5059737;28;20029;-60
2023/10/31 02:56:59;;;;;;;4.60;1.92;;;10.30;99.90;;;;;;5064963;28;20024;-60
2023/10/31 02:59:25;;;;;;;5.82;1.85;;;10.30;99.90;;;;;;5059683;28;20558;-58
2023/10/31 03:01:51;;;;;;;9.43;2.75;;;10.30;99.90;;;;;;5063418;28;20044;-57
2023/10/31 03:04:17;;;;;;;5.10;2.03;;;10.30;99.90;;;;;;5055237;28;20024;-53
2023/10/31 03:06:42;;;;;;;6.43;2.38;;;10.30;99.90;;;;;;5063423;28;20029;-57
2023/10/31 03:09:08;;;;;;;10.98;4.18;;;10.40;99.90;;;;;;5060288;28;20117;-54
2023/10/31 03:11:33;;;;;;;9.50;3.97;;;10.30;99.90;;;;;;5063890;28;20756;-58
2023/10/31 03:13:59;;;;;;;5.85;3.47;;;10.40;99.90;;;;;;5063497;28;20458;-60
2023/10/31 03:16:25;;;;;;;10.13;4.60;;;10.30;99.90;;;;;;5060570;28;20032;-59
2023/10/31 03:18:51;;;;;;;12.52;3.58;;;10.30;99.90;;;;;;5057197;28;20028;-59
2023/10/31 03:21:17;;;;;;;14.55;4.28;;;10.40;99.90;;;;;;5055228;28;20047;-57
2023/10/31 03:23:55;;;;;;;9.00;3.40;;;10.40;99.90;;;;;;5059637;28;20013;-58
2023/10/31 03:26:21;;;;;;;10.55;2.65;;;10.50;99.90;;;;;;5057255;28;20025;-54
2023/10/31 03:28:47;;;;;;;8.05;2.70;;;10.60;99.90;;;;;;5066743;28;20028;-57
2023/10/31 03:31:13;;;;;;;8.98;2.00;;;10.70;99.90;;;;;;5057641;28;20073;-53
2023/10/31 03:33:39;;;;;;;8.30;1.75;;;10.70;99.90;;;;;;5064339;28;20086;-56
2023/10/31 03:36:05;;;;;;;5.85;2.10;;;10.70;99.90;;;;;;5058155;28;20040;-54
2023/10/31 03:38:31;;;;;;;4.65;2.13;;;10.70;99.90;;;;;;5064907;28;20055;-58
2023/10/31 03:40:57;;;;;;;4.18;2.15;;;10.80;99.90;;;;;;5058108;28;20028;-57
2023/10/31 03:43:23;;;;;;;10.52;2.35;;;10.70;99.90;;;;;;5061528;28;20029;-58
2023/10/31 03:45:48;;;;;;;8.32;2.42;;;10.70;99.90;;;;;;5057396;28;20031;-59
2023/10/31 03:48:15;;;;;;;8.45;2.72;;;10.70;99.90;;;;;;5063834;28;20424;-52
2023/10/31 03:50:41;;;;;;;6.40;2.72;;;10.70;99.90;;;;;;5058173;28;20064;-54
2023/10/31 03:53:07;;;;;;;7.03;2.15;;;10.80;99.90;;;;;;5057638;28;20954;-56
2023/10/31 03:55:32;;;;;;;3.42;1.90;;;10.80;99.90;;;;;;5060101;28;20055;-56
2023/10/31 03:57:58;;;;;;;7.13;1.92;;;10.80;99.90;;;;;;5065596;28;20020;-53
2023/10/31 04:00:24;;;;;;;10.15;2.05;;;10.90;99.90;;;;;;5062557;28;22047;-56
2023/10/31 04:02:49;;;;;;;7.93;1.85;;;10.90;99.90;;;;;;5063291;28;20099;-59
2023/10/31 04:05:15;;;;;;;8.05;2.17;;;10.90;99.90;;;;;;5060350;28;20024;-58
2023/10/31 04:07:41;;;;;;;6.60;2.00;;;10.90;99.90;;;;;;5063365;28;20086;-54
2023/10/31 04:10:07;;;;;;;5.38;1.42;;;11.00;99.90;;;;;;5054879;28;20044;-52
2023/10/31 04:12:33;;;;;;;7.07;1.67;;;11.00;99.90;;;;;;5061179;28;20122;-54
2023/10/31 04:14:59;;;;;;;2.90;1.08;;;11.00;99.90;;;;;;5052015;28;20108;-59
2023/10/31 04:17:25;;;;;;;3.00;1.08;;;11.00;99.90;;;;;;5057001;28;20599;-58
2023/10/31 04:19:50;;;;;;;2.40;0.90;;;11.00;99.90;;;;;;5059049;28;20024;-61
2023/10/31 04:22:16;;;;;;;2.42;0.95;;;11.10;99.90;;;;;;5066315;28;20099;-59
2023/10/31 04:24:41;;;;;;;1.98;0.63;;;11.10;99.90;;;;;;5055004;28;20486;-62
2023/10/31 04:27:07;;;;;;;2.05;0.70;;;11.00;99.90;;;;;;5055397;28;20487;-58
2023/10/31 04:29:32;;;;;;;2.65;0.50;;;11.10;99.90;;;;;;5061794;28;21409;-59
2023/10/31 04:31:58;;;;;;;1.92;0.70;;;11.10;99.90;;;;;;5061438;28;20033;-57
2023/10/31 04:34:23;;;;;;;2.33;1.05;;;11.10;99.90;;;;;;5057608;28;20051;-55
2023/10/31 04:36:49;;;;;;;1.85;0.43;;;11.20;99.90;;;;;;5059993;28;20087;-60
2023/10/31 04:39:15;;;;;;;1.48;0.65;;;11.20;99.90;;;;;;5058366;28;20029;-59
2023/10/31 04:41:40;;;;;;;3.40;0.70;;;11.20;99.90;;;;;;5062305;28;20036;-55
2023/10/31 04:44:06;;;;;;;0.55;0.50;;;11.20;99.90;;;;;;5055480;28;20044;-56
2023/10/31 04:46:31;;;;;;;1.27;0.73;;;11.20;99.90;;;;;;5064835;28;20031;-60
2023/10/31 04:48:57;;;;;;;1.65;0.70;;;11.20;99.90;;;;;;5057444;28;20033;-58
2023/10/31 04:51:23;;;;;;;3.55;0.63;;;11.30;99.90;;;;;;5064025;28;20024;-59
2023/10/31 04:53:48;;;;;;;0.60;0.47;;;11.20;99.90;;;;;;5051707;28;20140;-55
2023/10/31 04:56:15;;;;;;;1.98;0.70;;;11.30;99.90;;;;;;5058734;28;20033;-59
2023/10/31 04:58:44;;;;;;;2.30;0.80;;;11.30;99.90;;;;;;5052647;28;20032;-56
2023/10/31 05:01:11;;;;;;;2.47;0.50;;;11.30;99.90;;;;;;5060699;28;20029;-58
2023/10/31 05:03:37;;;;;;;1.10;0.50;;;11.30;99.90;;;;;;5065680;28;20036;-58
2023/10/31 05:06:03;;;;;;;1.75;0.50;;;11.30;99.90;;;;;;5065305;28;20414;-57
2023/10/31 05:08:30;;;;;;;0.73;0.40;;;11.30;99.90;;;;;;5061479;28;20036;-60
2023/10/31 05:10:55;;;;;;;1.13;0.80;;;11.40;99.90;;;;;;5061898;28;20475;-59
2023/10/31 05:13:21;;;;;;;3.67;0.82;;;11.40;99.90;;;;;;5063317;28;20048;-62
2023/10/31 05:15:46;;;;;;;3.55;1.15;;;11.40;99.90;;;;;;5061592;28;20021;-58
2023/10/31 05:18:12;;;;;;;5.28;0.85;;;11.40;99.90;;;;;;5063683;28;20047;-58
2023/10/31 05:20:38;;;;;;;3.03;0.80;;;11.40;99.90;;;;;;5062265;28;20036;-57
2023/10/31 05:23:03;;;;;;;2.00;0.90;;;11.40;99.90;;;;;;5062373;28;20029;-59
2023/10/31 05:25:30;;;;;;;1.50;0.70;;;11.40;99.90;;;;;;5061625;28;20127;-60
2023/10/31 05:27:55;;;;;;;2.08;1.33;;;11.40;99.90;;;;;;5064157;28;20546;-58
2023/10/31 05:30:21;;;;;;;1.77;0.75;;;11.40;99.90;;;;;;5058097;28;20048;-60
2023/10/31 05:32:47;;;;;;;1.35;1.00;;;11.40;99.90;;;;;;5062160;28;20079;-63
2023/10/31 05:35:12;;;;;;;2.30;1.00;;;11.40;99.90;;;;;;5054066;28;20036;-58
2023/10/31 05:37:38;;;;;;;1.70;0.88;;;11.40;99.90;;;;;;5061218;28;20399;-55
2023/10/31 05:40:04;;;;;;;2.97;1.73;;;11.40;99.90;;;;;;5060712;28;20054;-54
2023/10/31 05:42:30;;;;;;;2.03;1.08;;;11.30;99.90;;;;;;5060460;28;20043;-58
2023/10/31 05:44:56;;;;;;;1.50;1.05;;;11.40;99.90;;;;;;5054895;28;20033;-51
2023/10/31 05:47:22;;;;;;;1.85;1.60;;;11.40;99.90;;;;;;5066975;28;20110;-57
2023/10/31 05:49:48;;;;;;;2.58;1.25;;;11.40;99.90;;;;;;5056664;28;20135;-58
2023/10/31 05:52:13;;;;;;;3.10;1.38;;;11.30;99.90;;;;;;5059687;28;20032;-57
2023/10/31 05:54:39;;;;;;;3.67;1.20;;;11.30;99.90;;;;;;5060183;28;20036;-58
2023/10/31 05:57:04;;;;;;;1.40;1.10;;;11.40;99.90;;;;;;5067168;28;20024;-58
2023/10/31 05:59:30;;;;;;;8.20;1.67;;;11.40;99.90;;;;;;5059061;28;20036;-55
2023/10/31 06:01:55;;;;;;;4.78;1.40;;;11.40;99.90;;;;;;5056549;28;20021;-59
2023/10/31 06:04:21;;;;;;;3.92;1.30;;;11.40;99.90;;;;;;5054702;28;20471;-57
2023/10/31 06:06:46;;;;;;;7.10;1.10;;;11.40;99.90;;;;;;5056241;28;20473;-58
2023/10/31 06:09:14;;;;;;;1.52;1.00;;;11.40;99.90;;;;;;5059404;28;20081;-57
2023/10/31 06:11:42;;;;;;;5.07;1.17;;;11.40;99.90;;;;;;5056928;28;20056;-54
2023/10/31 06:14:08;;;;;;;4.93;1.25;;;11.40;99.90;;;;;;5061616;28;20028;-54
2023/10/31 06:16:39;;;;;;;4.50;1.20;;;11.40;99.90;;;;;;5062100;28;20044;-53
2023/10/31 06:19:04;;;;;;;3.30;1.27;;;11.40;99.90;;;;;;5055363;28;20025;-57
2023/10/31 06:21:30;;;;;;;2.90;1.20;;;11.40;99.90;;;;;;5059884;28;20028;-54
2023/10/31 06:23:55;;;;;;;1.83;1.00;;;11.40;99.90;;;;;;5061883;28;20024;-58
2023/10/31 06:26:21;;;;;;;1.98;1.55;;;11.40;99.90;;;;;;5058461;28;20029;-57
2023/10/31 06:28:46;;;;;;;5.93;1.52;;;11.40;99.90;;;;;;5062604;28;20442;-59
2023/10/31 06:31:12;;;;;;;4.53;2.47;;;11.40;99.90;;;;;;5057117;28;20033;-57
2023/10/31 06:33:37;;;;;;;6.47;2.53;;;11.40;99.90;;;;;;5060676;28;20025;-55
2023/10/31 06:36:03;;;;;;;5.35;1.73;;;11.40;99.90;;;;;;5056856;28;20033;-59
2023/10/31 06:38:29;;;;;;;3.03;1.80;;;11.50;99.90;;;;;;5052140;28;20142;-56
2023/10/31 06:40:57;;;;;;;2.83;2.13;;;11.40;99.90;;;;;;5063306;28;20012;-55
2023/10/31 06:43:22;;;;;;;3.47;1.85;;;11.40;99.90;;;;;;5059668;28;20479;-54
2023/10/31 06:45:47;;;;;;;2.47;2.00;;;11.40;99.90;;;;;;5063820;28;20091;-58
2023/10/31 06:48:13;;;;;;;4.45;1.80;;;11.40;99.90;;;;;;5067926;28;20068;-57
2023/10/31 06:50:38;;;;;;;5.03;2.45;;;11.40;99.90;;;;;;5063008;28;20056;-54
2023/10/31 06:53:04;;;;;;;3.65;2.33;;;11.40;99.90;;;;;;5066688;28;20492;-56
2023/10/31 06:55:29;;;;;;;3.13;2.25;;;11.40;99.90;;;;;;5061536;28;20107;-56
2023/10/31 06:57:55;;;;;;;4.72;2.30;;;11.40;99.90;;;;;;5061735;28;20032;-54
2023/10/31 07:00:21;;;;;;;3.72;2.10;;;11.40;99.90;;;;;;5064067;28;20043;-55
2023/10/31 07:02:47;;;;;;;7.03;2.40;;;11.40;99.90;;;;;;5063949;28;20033;-54
2023/10/31 07:05:13;;;;;;;3.97;2.00;;;11.30;99.90;;;;;;5060051;28;20143;-58
2023/10/31 07:07:39;;;;;;;4.60;2.30;;;11.40;99.90;;;;;;5066517;28;20079;-53
2023/10/31 07:10:05;;;;;;;5.18;2.35;;;11.40;99.90;;;;;;5065144;28;20028;-53
2023/10/31 07:12:31;;;;;;;6.55;2.63;;;11.40;99.90;;;;;;5066970;28;20036;-57
2023/10/31 07:14:58;;;;;;;4.82;2.55;;;11.40;99.90;;;;;;5059576;28;20029;-52
2023/10/31 07:17:25;;;;;;;4.57;3.38;;;11.40;99.90;;;;;;5068611;28;20083;-58
2023/10/31 07:19:50;;;;;;;5.13;2.70;;;11.40;99.90;;;;;;5054815;28;20074;-58
2023/10/31 07:22:16;;;;;;;4.18;2.33;;;11.40;99.90;;;;;;5065054;28;20112;-55
2023/10/31 07:24:42;;;;;;;4.55;2.83;;;11.40;99.90;;;;;;5064088;28;20051;-58
2023/10/31 07:27:08;;;;;;;7.32;3.55;;;11.40;99.90;;;;;;5064241;28;20032;-55
2023/10/31 07:29:34;;;;;;;4.78;3.47;;;11.40;99.90;;;;;;5063089;28;20024;-58
2023/10/31 07:32:00;;;;;;;7.57;3.42;;;11.40;99.90;;;;;;5061111;28;20121;-57
2023/10/31 07:34:25;;;;;;;7.28;3.60;;;11.50;99.90;;;;;;5058944;28;20021;-53
2023/10/31 07:36:51;;;;;;;4.97;3.05;;;11.50;99.90;;;;;;5063019;28;20040;-55
2023/10/31 07:39:17;;;;;;;4.65;2.70;;;11.50;99.90;;;;;;5063867;28;20027;-55
2023/10/31 07:41:42;;;;;;;4.55;3.03;;;11.50;99.90;;;;;;5063046;28;20023;-55
2023/10/31 07:44:08;;;;;;;3.85;2.92;;;11.50;99.90;;;;;;5065380;28;20130;-57
2023/10/31 07:46:33;;;;;;;5.80;3.28;;;11.40;99.90;;;;;;5059065;28;20028;-57
2023/10/31 07:48:59;;;;;;;6.60;3.20;;;11.40;99.90;;;;;;5057565;28;20035;-56
2023/10/31 07:51:24;;;;;;;4.80;2.50;;;11.50;99.90;;;;;;5060085;28;20031;-56
2023/10/31 07:53:50;;;;;;;5.28;3.05;;;11.40;99.90;;;;;;5061899;28;20043;-53
2023/10/31 07:56:16;;;;;;;5.35;2.55;;;11.40;99.90;;;;;;5057682;28;20059;-59
2023/10/31 07:58:42;;;;;;;6.95;2.17;;;11.40;99.90;;;;;;5060863;28;20032;-58
2023/10/31 08:01:10;;;;;;;2.67;2.35;;;11.40;99.90;;;;;;5062703;28;20021;-59
2023/10/31 08:03:39;;;;;;;3.85;1.88;;;11.40;99.90;;;;;;5064756;28;20028;-62
2023/10/31 08:06:07;;;;;;;4.82;2.42;;;11.40;99.90;;;;;;5062658;28;20040;-63
2023/10/31 08:08:32;;;;;;;2.58;2.35;;;11.50;99.90;;;;;;5064859;28;20039;-64
2023/10/31 08:10:58;;;;;;;4.85;2.55;;;11.60;99.90;;;;;;5060768;28;20029;-63
2023/10/31 08:13:24;;;;;;;7.20;2.35;;;11.60;99.90;;;;;;5063749;28;20040;-63
2023/10/31 08:15:50;;;;;;;5.72;2.42;;;11.60;99.90;;;;;;5061952;28;20048;-62
2023/10/31 08:18:15;;;;;;;5.60;2.92;;;11.60;99.90;;;;;;5071264;28;20032;-61
2023/10/31 08:20:43;;;;;;;6.72;2.90;;;11.70;99.90;;;;;;5061431;28;20036;-63
2023/10/31 08:23:08;;;;;;;6.05;3.58;;;11.80;99.90;;;;;;5061378;28;20114;-62
2023/10/31 08:25:34;;;;;;;6.95;3.38;;;11.90;99.90;;;;;;5058253;28;20067;-63
2023/10/31 08:27:59;;;;;;;4.15;3.05;;;12.00;99.90;;;;;;5059380;28;20040;-62
2023/10/31 08:30:25;;;;;;;6.80;2.78;;;12.00;99.90;;;;;;5060625;28;20025;-63
2023/10/31 08:32:50;;;;;;;6.18;3.88;;;12.10;99.90;;;;;;5059711;28;20487;-62
2023/10/31 08:35:16;;;;;;;5.60;3.20;;;12.10;99.90;;;;;;5064525;28;20479;-63
2023/10/31 08:37:42;;;;;;;6.45;4.40;;;12.10;99.90;;;;;;5073288;28;20024;-63
2023/10/31 08:40:08;;;;;;;6.85;3.75;;;12.10;99.90;;;;;;5062984;28;20140;-61
2023/10/31 08:42:33;;;;;;;10.43;4.22;;;12.20;99.90;;;;;;5071268;28;20473;-60
2023/10/31 08:44:59;;;;;;;8.13;3.15;;;12.30;99.90;;;;;;5063770;28;20107;-61
2023/10/31 08:47:24;;;;;;;6.03;3.40;;;12.30;99.90;;;;;;5068200;28;20430;-63
2023/10/31 08:49:51;;;;;;;7.35;3.30;;;12.40;99.90;;;;;;5065378;28;20028;-61
2023/10/31 08:52:17;;;;;;;4.00;3.20;;;12.40;99.90;;;;;;5064236;28;20029;-62
2023/10/31 08:54:43;;;;;;;8.13;3.47;;;12.30;99.90;;;;;;5061669;28;20036;-63
2023/10/31 08:57:08;;;;;;;5.32;3.08;;;12.30;99.90;;;;;;5069045;28;20220;-63
2023/10/31 08:59:34;;;;;;;4.43;2.95;;;12.30;99.90;;;;;;5062379;28;20024;-62
2023/10/31 09:02:01;;;;;;;4.07;2.88;;;12.30;99.90;;;;;;5063736;28;20032;-62
2023/10/31 09:04:26;;;;;;;4.97;3.25;;;12.30;99.90;;;;;;5065223;28;20486;-63
2023/10/31 09:06:52;;;;;;;4.78;2.67;;;12.40;99.90;;;;;;5060070;28;20115;-64
2023/10/31 09:09:17;;;;;;;5.47;2.67;;;12.50;99.90;;;;;;5061393;28;20029;-64
2023/10/31 09:11:43;;;;;;;8.25;2.38;;;12.60;99.90;;;;;;5065113;28;20108;-62
2023/10/31 09:14:09;;;;;;;7.03;2.15;;;12.70;99.90;;;;;;5063174;28;20020;-62
2023/10/31 09:16:35;;;;;;;2.58;1.60;;;12.70;99.90;;;;;;5066080;28;20035;-61
2023/10/31 09:19:00;;;;;;;2.85;1.90;;;12.80;99.90;;;;;;5061810;28;20150;-63
2023/10/31 09:21:26;;;;;;;4.28;2.40;;;12.90;99.90;;;;;;5067332;28;20024;-64
2023/10/31 09:23:51;;;;;;;4.43;1.90;;;13.00;99.90;;;;;;5067313;28;20565;-63
2023/10/31 09:26:17;;;;;;;4.95;1.85;;;13.00;99.90;;;;;;5066011;28;20036;-61
2023/10/31 09:28:49;;;;;;;3.72;1.88;;;13.10;99.90;;;;;;5060820;28;20044;-62
2023/10/31 09:31:18;;;;;;;2.67;1.95;;;12.90;99.90;;;;;;5068679;28;20513;-64
2023/10/31 09:33:45;;;;;;;2.83;1.80;;;12.90;99.90;;;;;;5066077;28;20061;-64
2023/10/31 09:36:12;;;;;;;3.33;2.00;;;12.80;99.90;;;;;;5062324;28;20034;-65
2023/10/31 09:38:38;;;;;;;9.48;1.70;;;12.80;99.90;;;;;;5062375;28;20112;-63
2023/10/31 09:41:04;;;;;;;3.67;1.60;;;12.90;99.90;;;;;;5060001;28;20104;-63
2023/10/31 09:43:30;;;;;;;2.10;1.10;;;12.80;99.90;;;;;;5068413;28;20173;-61
2023/10/31 09:45:57;;;;;;;1.70;1.23;;;12.90;99.90;;;;;;5058867;28;20115;-61
2023/10/31 09:48:23;;;;;;;2.08;1.30;;;12.90;99.90;;;;;;5067708;28;20495;-60
2023/10/31 09:50:49;;;;;;;2.83;1.08;;;13.00;99.90;;;;;;5061517;28;20115;-60
2023/10/31 09:53:18;;;;;;;3.70;1.25;;;13.10;99.90;;;;;;5066962;28;20047;-61
2023/10/31 09:55:45;;;;;;;1.60;1.20;;;13.10;99.90;;;;;;5057732;28;20033;-59
2023/10/31 09:58:11;;;;;;;5.10;2.10;;;13.10;99.90;;;;;;5066210;28;20054;-62
2023/10/31 10:00:37;;;;;;;0.80;0.80;;;13.10;99.90;;;;;;5058143;28;20104;-63
2023/10/31 10:03:03;;;;;;;4.97;1.00;;;13.10;99.90;;;;;;5062790;28;20021;-62
2023/10/31 10:05:32;;;;;;;1.45;1.00;;;13.20;99.90;;;;;;5061004;28;20040;-62
2023/10/31 10:07:58;;;;;;;4.57;1.40;;;13.30;99.90;;;;;;5063206;28;20041;-61
2023/10/31 10:10:24;;;;;;;3.25;1.05;;;13.30;99.90;;;;;;5058281;28;20028;-62
2023/10/31 10:12:52;;;;;;;5.88;1.00;;;13.40;99.90;;;;;;5064753;28;20694;-61
2023/10/31 10:15:18;;;;;;;3.20;0.80;;;13.40;99.90;;;;;;5056903;28;20025;-62
2023/10/31 10:17:51;;;;;;;5.55;1.08;;;13.40;99.90;;;;;;5060089;28;20051;-64
2023/10/31 10:20:17;;;;;;;0.90;0.77;;;13.50;99.90;;;;;;5060495;28;20032;-62
2023/10/31 10:22:44;;;;;;;6.95;0.80;;;13.70;99.90;;;;;;5067909;28;20024;-61
2023/10/31 10:25:14;;;;;;;5.70;0.90;;;13.80;99.90;;;;;;5064346;28;20032;-61
2023/10/31 10:27:41;;;;;;;2.70;0.77;;;13.90;99.90;;;;;;5057927;28;20108;-61
2023/10/31 10:30:08;;;;;;;3.53;0.60;;;13.90;99.90;;;;;;5065471;28;20032;-57
2023/10/31 10:32:34;;;;;;;1.95;0.82;;;14.00;99.90;;;;;;5065812;28;20592;-61
2023/10/31 10:35:00;;;;;;;3.65;0.80;;;14.20;99.90;;;;;;5063898;28;20036;-62
2023/10/31 10:37:27;;;;;;;1.00;0.60;;;14.40;99.90;;;;;;5061447;28;20032;-61
2023/10/31 10:39:55;;;;;;;1.88;0.60;;;14.50;99.90;;;;;;5063543;28;20416;-62
2023/10/31 10:42:27;;;;;;;6.10;1.20;;;14.70;99.90;;;;;;5063708;28;20073;-63
2023/10/31 10:44:57;;;;;;;2.47;0.70;;;14.70;99.90;;;;;;5063357;28;20027;-64
2023/10/31 10:47:24;;;;;;;0.73;0.50;;;14.60;99.90;;;;;;5059893;28;20074;-63
2023/10/31 10:49:58;;;;;;;0.55;0.52;;;14.40;99.90;;;;;;5063029;28;20065;-63
2023/10/31 10:52:29;;;;;;;0.65;0.65;;;14.50;99.90;;;;;;5057715;28;20100;-63
2023/10/31 10:55:19;;;;;;;2.00;0.57;;;14.30;99.90;;;;;;5062402;28;20033;-62
2023/10/31 10:58:00;;;;;;;1.65;0.45;;;14.40;99.90;;;;;;5052480;28;20017;-63
2023/10/31 11:00:26;;;;;;;2.85;0.57;;;14.50;99.90;;;;;;5059514;28;20428;-63
2023/10/31 11:02:53;;;;;;;5.13;0.68;;;14.60;99.90;;;;;;5060034;28;20052;-62
2023/10/31 11:05:19;;;;;;;2.00;0.73;;;14.60;99.90;;;;;;5060247;28;20025;-63
2023/10/31 11:07:47;;;;;;;1.35;0.60;;;14.80;99.90;;;;;;5062772;28;20032;-63
2023/10/31 11:10:13;;;;;;;1.17;0.60;;;15.20;99.90;;;;;;5062344;28;20017;-64
2023/10/31 11:12:40;;;;;;;0.90;0.40;;;15.10;99.90;;;;;;5059976;28;20071;-62
2023/10/31 11:15:07;;;;;;;0.50;0.40;;;15.00;99.90;;;;;;5061506;28;20113;-60
2023/10/31 11:17:36;;;;;;;1.80;0.55;;;15.20;99.90;;;;;;5056750;28;20078;-59
2023/10/31 11:20:03;;;;;;;3.90;0.95;;;14.90;99.90;;;;;;5056946;28;20060;-62
2023/10/31 11:22:44;;;;;;;1.77;0.57;;;14.90;99.90;;;;;;5059380;28;20048;-63
2023/10/31 11:25:14;;;;;;;3.70;0.60;;;15.00;99.90;;;;;;5059493;28;20024;-62
2023/10/31 11:27:41;;;;;;;6.78;0.95;;;15.00;99.90;;;;;;5068074;28;20544;-62
2023/10/31 11:30:19;;;;;;;4.20;0.77;;;14.90;99.90;;;;;;5057788;28;20032;-61
2023/10/31 11:33:05;;;;;;;0.90;0.50;;;14.70;99.90;;;;;;5058211;28;20024;-62
2023/10/31 11:35:32;;;;;;;5.45;0.70;;;14.80;99.90;;;;;;5061599;28;20104;-62
2023/10/31 11:38:06;;;;;;;2.70;0.70;;;14.80;99.90;;;;;;5066933;28;20059;-61
2023/10/31 11:40:32;;;;;;;4.20;1.02;;;14.70;99.90;;;;;;5060293;28;20103;-63
2023/10/31 11:43:01;;;;;;;1.48;0.73;;;14.70;99.90;;;;;;5060574;28;20033;-64
2023/10/31 11:45:35;;;;;;;2.85;0.80;;;14.40;99.90;;;;;;5057364;28;20045;-62
2023/10/31 11:48:00;;;;;;;2.20;0.70;;;14.40;99.90;;;;;;5062331;28;20037;-63
2023/10/31 11:50:26;;;;;;;4.53;0.60;;;14.40;99.90;;;;;;5056462;28;20029;-62
2023/10/31 11:53:00;;;;;;;2.58;0.93;;;14.50;99.90;;;;;;5062016;28;20060;-63
2023/10/31 11:55:25;;;;;;;8.13;0.80;;;14.50;99.90;;;;;;5066307;28;20372;-63
2023/10/31 11:57:51;;;;;;;1.17;0.70;;;14.40;99.90;;;;;;5062889;28;20029;-64
2023/10/31 12:00:24;;;;;;;6.10;1.48;;;14.50;99.90;;;;;;5066777;28;20036;-63
2023/10/31 12:03:00;;;;;;;5.13;0.55;;;14.30;99.90;;;;;;5058338;28;20037;-63
2023/10/31 12:05:26;;;;;;;1.67;0.75;;;14.40;99.90;;;;;;5067412;28;20386;-64
2023/10/31 12:07:51;;;;;;;3.50;0.60;;;14.50;99.90;;;;;;5056462;28;20033;-64
2023/10/31 12:10:25;;;;;;;1.88;0.60;;;14.60;99.90;;;;;;5071946;28;20021;-63
2023/10/31 12:12:51;;;;;;;2.53;0.50;;;14.80;99.90;;;;;;5057617;28;20061;-63
2023/10/31 12:15:16;;;;;;;5.78;0.93;;;14.70;99.90;;;;;;5064207;28;20402;-63
2023/10/31 12:17:42;;;;;;;6.63;0.85;;;14.80;99.90;;;;;;5066352;28;20035;-64
2023/10/31 12:20:08;;;;;;;5.10;0.90;;;14.80;99.90;;;;;;5066735;28;20562;-64
2023/10/31 12:22:35;;;;;;;2.38;0.90;;;14.60;99.90;;;;;;5061101;28;20075;-63
2023/10/31 12:25:02;;;;;;;3.95;0.63;;;14.60;99.90;;;;;;5067727;28;20497;-63
2023/10/31 12:27:49;;;;;;;4.60;0.88;;;14.50;99.90;;;;;;5059977;28;20036;-61
2023/10/31 12:30:19;;;;;;;3.15;0.85;;;14.50;99.90;;;;;;5064908;28;20021;-63
2023/10/31 12:32:52;;;;;;;1.77;0.70;;;14.60;99.90;;;;;;5059138;28;20021;-62
2023/10/31 12:35:22;;;;;;;3.53;0.80;;;14.60;99.90;;;;;;5056323;28;20020;-64
2023/10/31 12:37:52;;;;;;;5.80;0.93;;;14.40;99.90;;;;;;5053201;28;20112;-60
2023/10/31 12:40:20;;;;;;;3.97;0.60;;;14.50;99.90;;;;;;5063501;28;20099;-63
2023/10/31 12:42:47;;;;;;;4.32;0.85;;;14.50;99.90;;;;;;5061763;28;20028;-63